createdAt,value
2019-04-04T00:01:25.586Z,12.30
2019-04-04T00:03:53.430Z,12.30
2019-04-04T00:06:21.344Z,12.30
2019-04-04T00:08:49.138Z,12.30
2019-04-04T00:11:17.051Z,12.30
2019-04-04T00:13:44.882Z,12.30
2019-04-04T00:16:15.614Z,12.30
2019-04-04T00:18:42.249Z,12.30
2019-04-04T00:21:10.104Z,12.30
2019-04-04T00:23:38.520Z,12.20
2019-04-04T00:26:06.458Z,12.20
2019-04-04T00:28:34.330Z,12.10
2019-04-04T00:31:02.190Z,12.10
2019-04-04T00:33:30.480Z,12.10
2019-04-04T00:35:58.327Z,12.00
2019-04-04T00:38:26.289Z,12.00
2019-04-04T00:40:54.162Z,11.90
2019-04-04T00:43:22.051Z,11.90
2019-04-04T00:45:49.898Z,11.90
2019-04-04T00:48:17.793Z,11.90
2019-04-04T00:50:45.637Z,11.80
2019-04-04T00:53:13.523Z,11.90
2019-04-04T00:55:41.378Z,11.90
2019-04-04T00:58:09.250Z,11.90
2019-04-04T01:00:37.098Z,11.80
2019-04-04T01:03:05.383Z,11.70
2019-04-04T01:05:33.403Z,11.70
2019-04-04T01:08:01.237Z,11.60
2019-04-04T01:10:29.082Z,11.60
2019-04-04T01:12:57.031Z,11.60
2019-04-04T01:15:24.820Z,11.60
2019-04-04T01:17:52.703Z,11.50
2019-04-04T01:20:20.839Z,11.50
2019-04-04T01:22:48.744Z,11.50
2019-04-04T01:25:16.618Z,11.40
2019-04-04T01:27:44.451Z,11.30
2019-04-04T01:30:12.730Z,11.30
2019-04-04T01:32:41.287Z,11.20
2019-04-04T01:35:09.194Z,11.20
2019-04-04T01:37:37.239Z,11.10
2019-04-04T01:40:05.258Z,11.10
2019-04-04T01:42:33.112Z,11.10
2019-04-04T01:45:00.999Z,11.10
2019-04-04T01:47:28.863Z,11.10
2019-04-04T01:49:57.076Z,11.10
2019-04-04T01:52:27.841Z,11.00
2019-04-04T01:54:54.528Z,11.00
2019-04-04T01:57:22.358Z,11.00
2019-04-04T01:59:50.322Z,10.90
2019-04-04T02:02:18.576Z,10.80
2019-04-04T02:04:46.670Z,10.80
2019-04-04T02:07:14.552Z,10.80
2019-04-04T02:09:43.467Z,10.80
2019-04-04T02:12:11.397Z,10.70
2019-04-04T02:14:41.036Z,10.70
2019-04-04T02:17:08.976Z,10.60
2019-04-04T02:19:36.771Z,10.50
2019-04-04T02:22:04.853Z,10.40
2019-04-04T02:24:32.647Z,10.40
2019-04-04T02:27:00.467Z,10.40
2019-04-04T02:29:28.260Z,10.40
2019-04-04T02:31:58.227Z,10.40
2019-04-04T02:34:26.135Z,10.40
2019-04-04T02:36:53.982Z,10.40
2019-04-04T02:39:22.068Z,10.50
2019-04-04T02:41:49.915Z,10.50
2019-04-04T02:44:17.820Z,10.40
2019-04-04T02:46:45.865Z,10.40
2019-04-04T02:49:13.772Z,10.40
2019-04-04T02:51:41.656Z,10.30
2019-04-04T02:54:09.551Z,10.30
2019-04-04T02:56:37.448Z,10.20
2019-04-04T02:59:05.371Z,10.10
2019-04-04T03:01:33.350Z,10.10
2019-04-04T03:04:01.802Z,10.20
2019-04-04T03:06:29.625Z,10.10
2019-04-04T03:08:57.485Z,10.10
2019-04-04T03:11:25.439Z,10.00
2019-04-04T03:13:53.314Z,10.00
2019-04-04T03:16:22.386Z,10.00
2019-04-04T03:18:50.379Z,9.90
2019-04-04T03:21:21.967Z,9.90
2019-04-04T03:23:47.864Z,10.00
2019-04-04T03:26:19.010Z,9.90
2019-04-04T03:28:45.231Z,10.00
2019-04-04T03:31:13.111Z,9.90
2019-04-04T03:33:40.950Z,9.90
2019-04-04T03:36:08.852Z,9.90
2019-04-04T03:38:36.702Z,9.90
2019-04-04T03:41:04.596Z,9.80
2019-04-04T03:43:32.366Z,9.80
2019-04-04T03:46:01.536Z,9.70
2019-04-04T03:48:29.604Z,9.70
2019-04-04T03:50:57.807Z,9.70
2019-04-04T03:53:27.131Z,9.70
2019-04-04T03:55:54.958Z,9.70
2019-04-04T03:58:26.968Z,9.60
2019-04-04T04:00:52.498Z,9.60
2019-04-04T04:03:22.822Z,9.60
2019-04-04T04:05:50.115Z,9.60
2019-04-04T04:08:20.995Z,9.60
2019-04-04T04:10:47.578Z,9.60
2019-04-04T04:13:17.413Z,9.60
2019-04-04T04:15:45.263Z,9.60
2019-04-04T04:18:13.123Z,9.60
2019-04-04T04:20:40.977Z,9.50
2019-04-04T04:23:08.771Z,9.50
2019-04-04T04:25:36.985Z,9.50
2019-04-04T04:28:04.925Z,9.40
2019-04-04T04:30:32.764Z,9.40
2019-04-04T04:33:00.656Z,9.40
2019-04-04T04:35:28.489Z,9.40
2019-04-04T04:37:56.733Z,9.40
2019-04-04T04:40:24.551Z,9.40
2019-04-04T04:42:52.432Z,9.40
2019-04-04T04:45:20.210Z,9.40
2019-04-04T04:47:48.081Z,9.40
2019-04-04T04:50:15.916Z,9.40
2019-04-04T04:52:46.475Z,9.40
2019-04-04T04:55:13.493Z,9.40
2019-04-04T04:57:41.380Z,9.50
2019-04-04T05:00:09.413Z,9.50
2019-04-04T05:02:37.302Z,9.50
2019-04-04T05:05:05.560Z,9.40
2019-04-04T05:07:33.464Z,9.50
2019-04-04T05:10:01.239Z,9.50
2019-04-04T05:12:29.092Z,9.70
2019-04-04T05:14:56.939Z,9.90
2019-04-04T05:17:24.831Z,10.00
2019-04-04T05:19:52.953Z,10.00
2019-04-04T05:22:20.833Z,9.90
2019-04-04T05:25:06.771Z,9.90
2019-04-04T05:27:18.621Z,9.80
2019-04-04T05:29:46.431Z,9.80
2019-04-04T05:32:14.588Z,9.80
2019-04-04T05:34:42.447Z,9.80
2019-04-04T05:37:10.303Z,9.90
2019-04-04T05:39:38.088Z,10.00
2019-04-04T05:42:05.884Z,10.10
2019-04-04T05:44:34.295Z,10.10
2019-04-04T05:47:02.318Z,10.20
2019-04-04T05:49:30.172Z,10.30
2019-04-04T05:51:57.964Z,10.40
2019-04-04T05:54:26.031Z,10.40
2019-04-04T05:56:54.145Z,10.40
2019-04-04T05:59:23.828Z,10.50
2019-04-04T06:01:51.558Z,10.60
2019-04-04T06:04:20.181Z,10.60
2019-04-04T06:06:48.204Z,10.70
2019-04-04T06:09:16.071Z,10.70
2019-04-04T06:11:44.035Z,10.80
2019-04-04T06:14:11.929Z,10.90
2019-04-04T06:16:39.771Z,11.00
2019-04-04T06:19:07.664Z,11.00
2019-04-04T06:21:35.506Z,11.10
2019-04-04T06:24:03.480Z,11.20
2019-04-04T06:26:31.256Z,11.30
2019-04-04T06:28:59.135Z,11.40
2019-04-04T06:31:30.675Z,11.40
2019-04-04T06:33:56.680Z,11.50
2019-04-04T06:36:24.555Z,11.60
2019-04-04T06:38:54.066Z,11.70
2019-04-04T06:41:22.463Z,11.80
2019-04-04T06:43:50.313Z,11.90
2019-04-04T06:46:21.093Z,12.00
2019-04-04T06:48:47.811Z,12.10
2019-04-04T06:51:16.122Z,12.10
2019-04-04T06:53:46.715Z,12.20
2019-04-04T06:56:13.539Z,12.40
2019-04-04T06:58:41.710Z,12.50
2019-04-04T07:01:11.088Z,12.60
2019-04-04T07:03:39.365Z,12.70
2019-04-04T07:06:08.080Z,12.90
2019-04-04T07:08:36.870Z,13.00
2019-04-04T07:11:11.220Z,13.20
2019-04-04T07:13:42.292Z,13.30
2019-04-04T07:16:07.804Z,13.40
2019-04-04T07:18:33.472Z,13.50
2019-04-04T07:21:03.583Z,13.70
2019-04-04T07:23:30.819Z,13.80
2019-04-04T07:25:58.590Z,13.90
2019-04-04T07:28:26.391Z,14.00
2019-04-04T07:30:54.734Z,14.10
2019-04-04T07:33:22.621Z,14.20
2019-04-04T07:35:50.467Z,14.30
2019-04-04T07:38:18.264Z,14.50
2019-04-04T07:40:46.095Z,14.60
2019-04-04T07:43:13.876Z,14.60
2019-04-04T07:45:41.691Z,14.70
2019-04-04T07:48:12.109Z,14.70
2019-04-04T07:50:39.018Z,14.80
2019-04-04T07:53:06.796Z,14.70
2019-04-04T07:55:34.754Z,14.80
2019-04-04T07:58:02.545Z,14.80
2019-04-04T08:00:30.454Z,14.80
2019-04-04T08:02:58.239Z,14.80
2019-04-04T08:07:53.472Z,15.00
2019-04-04T08:10:21.443Z,15.20
2019-04-04T08:12:49.209Z,15.40
2019-04-04T08:15:17.020Z,15.60
2019-04-04T08:17:44.871Z,15.70
2019-04-04T08:20:12.898Z,15.80
2019-04-04T08:22:40.679Z,15.80
2019-04-04T08:25:08.550Z,15.90
2019-04-04T08:30:04.201Z,16.00
2019-04-04T08:32:31.977Z,16.10
2019-04-04T08:35:00.082Z,16.00
2019-04-04T08:37:27.857Z,16.00
2019-04-04T08:39:55.663Z,16.10
2019-04-04T08:42:23.451Z,16.10
2019-04-04T08:44:51.242Z,16.20
2019-04-04T08:47:19.023Z,16.40
2019-04-04T08:49:46.826Z,16.50
2019-04-04T08:52:16.904Z,16.50
2019-04-04T08:54:44.128Z,16.60
2019-04-04T08:57:12.231Z,16.80
2019-04-04T08:59:40.023Z,16.80
2019-04-04T09:02:07.789Z,16.90
2019-04-04T09:04:35.587Z,16.90
2019-04-04T09:07:03.367Z,16.90
2019-04-04T09:09:34.460Z,17.00
2019-04-04T09:12:00.696Z,17.00
2019-04-04T09:14:28.466Z,17.10
2019-04-04T09:16:56.280Z,17.20
2019-04-04T09:19:24.056Z,17.20
2019-04-04T09:21:51.837Z,17.00
2019-04-04T09:24:19.619Z,16.90
2019-04-04T09:26:47.430Z,16.80
2019-04-04T09:29:15.207Z,16.90
2019-04-04T09:31:42.990Z,16.90
2019-04-04T09:34:10.770Z,16.90
2019-04-04T09:36:38.612Z,17.00
2019-04-04T09:39:06.839Z,17.10
2019-04-04T09:41:34.625Z,17.10
2019-04-04T09:44:05.718Z,17.10
2019-04-04T09:46:32.040Z,17.20
2019-04-04T09:48:59.819Z,17.30
2019-04-04T09:51:27.615Z,17.40
2019-04-04T09:53:55.403Z,17.40
2019-04-04T09:56:23.219Z,17.40
2019-04-04T09:58:50.995Z,17.40
2019-04-04T10:01:18.804Z,17.50
2019-04-04T10:03:46.619Z,17.40
2019-04-04T10:06:14.491Z,17.50
2019-04-04T10:08:42.719Z,17.60
2019-04-04T10:11:10.499Z,17.70
2019-04-04T10:13:38.283Z,17.70
2019-04-04T10:16:06.084Z,17.80
2019-04-04T10:18:33.878Z,17.90
2019-04-04T10:21:11.811Z,17.90
2019-04-04T10:23:31.170Z,18.00
2019-04-04T10:25:59.317Z,18.00
2019-04-04T10:30:54.537Z,18.20
2019-04-04T10:33:22.311Z,18.30
2019-04-04T10:35:50.115Z,18.30
2019-04-04T10:38:17.924Z,18.50
2019-04-04T10:40:46.261Z,18.60
2019-04-04T10:43:14.118Z,18.60
2019-04-04T10:45:41.896Z,18.60
2019-04-04T10:48:09.781Z,18.70
2019-04-04T10:50:37.567Z,18.80
2019-04-04T10:53:05.599Z,18.80
2019-04-04T10:55:33.388Z,18.90
2019-04-04T10:58:01.208Z,19.00
2019-04-04T11:00:29.068Z,19.10
2019-04-04T11:02:56.871Z,19.20
2019-04-04T11:05:24.695Z,19.40
2019-04-04T11:07:52.488Z,19.40
2019-04-04T11:10:20.615Z,19.50
2019-04-04T11:12:48.422Z,19.50
2019-04-04T11:15:16.269Z,19.50
2019-04-04T11:17:44.062Z,19.50
2019-04-04T11:20:13.371Z,19.60
2019-04-04T11:22:41.172Z,19.60
2019-04-04T11:25:09.020Z,19.60
2019-04-04T11:27:37.063Z,19.60
2019-04-04T11:30:05.476Z,19.70
2019-04-04T11:32:33.270Z,19.80
2019-04-04T11:35:01.051Z,19.90
2019-04-04T11:37:28.865Z,19.90
2019-04-04T11:39:56.639Z,19.90
2019-04-04T11:42:24.576Z,19.80
2019-04-04T11:44:52.363Z,19.80
2019-04-04T11:47:20.163Z,19.80
2019-04-04T11:49:47.936Z,19.90
2019-04-04T11:52:15.724Z,19.90
2019-04-04T11:55:00.016Z,20.00
2019-04-04T11:57:27.889Z,20.10
2019-04-04T11:59:55.995Z,20.10
2019-04-04T12:02:24.297Z,20.20
2019-04-04T12:04:52.083Z,20.20
2019-04-04T12:07:19.862Z,20.20
2019-04-04T12:09:47.655Z,20.00
2019-04-04T12:12:15.440Z,19.90
2019-04-04T12:14:43.235Z,19.80
2019-04-04T12:17:11.016Z,19.80
2019-04-04T12:19:38.821Z,19.80
2019-04-04T12:22:06.603Z,19.80
2019-04-04T12:24:34.391Z,19.90
2019-04-04T12:27:02.178Z,19.90
2019-04-04T12:29:30.679Z,20.00
2019-04-04T12:31:58.467Z,20.10
2019-04-04T12:34:26.265Z,20.20
2019-04-04T12:36:54.067Z,20.30
2019-04-04T12:39:21.931Z,20.40
2019-04-04T12:41:49.707Z,20.60
2019-04-04T12:44:17.504Z,20.90
2019-04-04T12:46:45.311Z,21.10
2019-04-04T12:49:13.146Z,21.30
2019-04-04T12:51:40.925Z,21.50
2019-04-04T12:54:08.803Z,21.50
2019-04-04T12:56:36.579Z,21.60
2019-04-04T12:59:04.467Z,21.60
2019-04-04T13:01:32.252Z,21.70
2019-04-04T13:04:00.047Z,21.80
2019-04-04T13:06:27.844Z,21.90
2019-04-04T13:08:55.651Z,21.80
2019-04-04T13:11:23.445Z,21.90
2019-04-04T13:13:51.271Z,21.80
2019-04-04T13:16:19.050Z,21.60
2019-04-04T13:18:47.171Z,21.40
2019-04-04T13:21:14.942Z,21.30
2019-04-04T13:23:42.994Z,21.20
2019-04-04T13:26:10.765Z,21.30
2019-04-04T13:28:38.615Z,21.30
2019-04-04T13:31:06.728Z,21.30
2019-04-04T13:33:34.494Z,21.30
2019-04-04T13:36:02.337Z,21.40
2019-04-04T13:38:30.106Z,21.30
2019-04-04T13:40:57.898Z,21.30
2019-04-04T13:43:25.692Z,21.30
2019-04-04T13:45:53.876Z,21.30
2019-04-04T13:48:21.688Z,21.30
2019-04-04T13:50:49.491Z,21.30
2019-04-04T13:53:17.265Z,21.40
2019-04-04T13:55:45.300Z,21.40
2019-04-04T13:58:13.139Z,21.40
2019-04-04T14:00:40.987Z,21.50
2019-04-04T14:03:08.781Z,21.50
2019-04-04T14:05:36.586Z,21.50
2019-04-04T14:08:04.416Z,21.70
2019-04-04T14:10:32.220Z,21.80
2019-04-04T14:13:00.000Z,21.80
2019-04-04T14:15:27.799Z,22.00
2019-04-04T14:17:55.596Z,22.00
2019-04-04T14:20:23.390Z,22.00
2019-04-04T14:22:51.854Z,22.00
2019-04-04T14:25:19.775Z,22.00
2019-04-04T14:27:47.549Z,22.00
2019-04-04T14:30:15.526Z,22.00
2019-04-04T14:32:43.311Z,22.10
2019-04-04T14:35:11.283Z,22.10
2019-04-04T14:37:39.053Z,22.20
2019-04-04T14:40:07.631Z,22.30
2019-04-04T14:42:35.425Z,22.20
2019-04-04T14:45:06.396Z,22.30
2019-04-04T14:47:33.690Z,22.30
2019-04-04T14:50:04.438Z,22.40
2019-04-04T14:52:31.317Z,22.40
2019-04-04T14:54:59.099Z,22.40
2019-04-04T14:57:26.958Z,22.20
2019-04-04T14:59:55.038Z,22.10
2019-04-04T15:02:22.838Z,22.00
2019-04-04T15:04:50.695Z,21.80
2019-04-04T15:07:18.546Z,21.70
2019-04-04T15:09:46.320Z,21.70
2019-04-04T15:12:14.131Z,21.80
2019-04-04T15:14:41.917Z,22.10
2019-04-04T15:17:09.716Z,22.30
2019-04-04T15:19:37.492Z,22.60
2019-04-04T15:22:05.359Z,22.70
2019-04-04T15:24:33.136Z,23.00
2019-04-04T15:27:00.969Z,23.10
2019-04-04T15:29:28.786Z,23.30
2019-04-04T15:31:56.811Z,23.40
2019-04-04T15:34:24.883Z,23.70
2019-04-04T15:36:52.681Z,24.10
2019-04-04T15:39:20.468Z,24.50
2019-04-04T15:41:49.330Z,24.90
2019-04-04T15:44:17.187Z,25.00
2019-04-04T15:46:45.047Z,25.10
2019-04-04T15:49:12.923Z,25.50
2019-04-04T15:51:40.831Z,25.40
2019-04-04T15:54:08.656Z,25.10
2019-04-04T15:56:36.543Z,24.70
2019-04-04T15:59:07.346Z,24.20
2019-04-04T16:01:33.923Z,24.00
2019-04-04T16:04:01.699Z,24.20
2019-04-04T16:06:29.558Z,25.30
2019-04-04T16:08:57.345Z,26.60
2019-04-04T16:11:25.138Z,28.00
2019-04-04T16:13:52.919Z,28.90
2019-04-04T16:16:20.816Z,29.50
2019-04-04T16:18:48.668Z,29.70
2019-04-04T16:21:17.276Z,29.80
2019-04-04T18:12:10.258Z,18.00
2019-04-04T18:14:38.743Z,17.80
2019-04-04T18:17:06.524Z,17.80
2019-04-04T18:19:34.318Z,17.80
2019-04-04T18:22:02.085Z,17.80
2019-04-04T18:24:29.897Z,17.70
2019-04-04T18:26:57.675Z,17.70
2019-04-04T18:29:25.491Z,17.70
2019-04-04T18:31:53.555Z,17.70
2019-04-04T18:34:21.367Z,17.70
2019-04-04T18:36:49.697Z,17.70
2019-04-04T18:39:17.636Z,17.60
2019-04-04T18:41:45.479Z,17.60
2019-04-04T18:44:13.284Z,17.60
2019-04-04T18:46:41.071Z,17.60
2019-04-04T18:49:08.908Z,17.60
2019-04-04T18:51:37.825Z,17.60
2019-04-04T18:54:05.768Z,17.60
2019-04-04T18:56:33.544Z,17.60
2019-04-04T18:59:03.426Z,17.60
2019-04-04T19:01:31.203Z,17.60
2019-04-04T19:03:59.052Z,17.50
2019-04-04T19:06:27.205Z,17.50
2019-04-04T19:08:55.006Z,17.40
2019-04-04T19:11:23.051Z,17.30
2019-04-04T19:13:50.932Z,17.20
2019-04-04T19:16:18.776Z,17.10
2019-04-04T19:18:46.582Z,17.00
2019-04-04T19:21:14.367Z,17.00
2019-04-04T19:23:49.208Z,16.90
2019-04-04T19:26:11.791Z,16.80
2019-04-04T19:28:39.589Z,16.80
2019-04-04T19:31:08.137Z,16.70
2019-04-04T19:33:36.014Z,16.60
2019-04-04T19:36:03.974Z,16.60
2019-04-04T19:38:32.022Z,16.50
2019-04-04T19:40:59.903Z,16.60
2019-04-04T19:43:27.683Z,16.60
2019-04-04T19:45:55.608Z,16.60
2019-04-04T19:48:23.439Z,16.50
2019-04-04T19:50:51.328Z,16.50
2019-04-04T19:53:19.179Z,16.50
2019-04-04T19:55:47.152Z,16.50
2019-04-04T19:58:15.010Z,16.40
2019-04-04T20:00:42.890Z,16.40
2019-04-04T20:03:10.725Z,16.40
2019-04-04T20:05:38.653Z,16.40
2019-04-04T20:08:06.583Z,16.30
2019-04-04T20:10:34.495Z,16.30
2019-04-04T20:13:02.313Z,16.30
2019-04-04T20:15:30.195Z,16.30
2019-04-04T20:17:57.975Z,16.30
2019-04-04T20:20:25.846Z,16.20
2019-04-04T20:22:53.950Z,16.20
2019-04-04T20:25:21.778Z,16.10
2019-04-04T20:27:55.050Z,16.00
2019-04-04T20:30:21.459Z,15.90
2019-04-04T20:32:49.225Z,15.80
2019-04-04T20:35:19.444Z,15.70
2019-04-04T20:37:47.675Z,15.70
2019-04-04T20:40:16.250Z,15.60
2019-04-04T20:42:44.085Z,15.70
2019-04-04T20:45:12.055Z,15.60
2019-04-04T20:47:40.156Z,15.60
2019-04-04T20:50:08.027Z,15.60
2019-04-04T20:52:35.803Z,15.60
2019-04-04T20:55:03.858Z,15.50
2019-04-04T20:57:32.000Z,15.40
2019-04-04T20:59:59.921Z,15.40
2019-04-04T21:02:27.750Z,15.30
2019-04-04T21:04:55.632Z,15.30
2019-04-04T21:07:23.483Z,15.20
2019-04-04T21:09:51.510Z,15.10
2019-04-04T21:12:19.378Z,15.10
2019-04-04T21:14:47.223Z,15.10
2019-04-04T21:17:15.080Z,15.10
2019-04-04T21:19:42.947Z,15.20
2019-04-04T21:22:11.172Z,15.10
2019-04-04T21:24:38.969Z,15.10
2019-04-04T21:27:06.874Z,15.10
2019-04-04T21:29:37.410Z,15.00
2019-04-04T21:32:05.245Z,15.00
2019-04-04T21:34:33.363Z,15.00
2019-04-04T21:37:01.294Z,15.00
2019-04-04T21:39:29.943Z,15.00
2019-04-04T21:41:57.949Z,15.00
2019-04-04T21:44:25.803Z,14.90
2019-04-04T21:46:54.600Z,14.90
2019-04-04T21:49:22.726Z,14.80
2019-04-04T21:51:51.584Z,14.80
2019-04-04T21:54:19.409Z,14.80
2019-04-04T21:56:47.380Z,14.80
2019-04-04T21:59:15.331Z,14.70
2019-04-04T22:01:43.556Z,14.70
2019-04-04T22:04:11.480Z,14.70
2019-04-04T22:06:39.572Z,14.60
2019-04-04T22:09:11.356Z,14.60
2019-04-04T22:11:39.213Z,14.60
2019-04-04T22:14:07.076Z,14.50
2019-04-04T22:16:34.871Z,14.50
2019-04-04T22:19:02.708Z,14.60
2019-04-04T22:21:30.603Z,14.50
2019-04-04T22:23:58.442Z,14.50
2019-04-04T22:26:26.368Z,14.40
2019-04-04T22:28:54.275Z,14.40
2019-04-04T22:31:22.166Z,14.40
2019-04-04T22:33:49.944Z,14.40
2019-04-04T22:36:17.789Z,14.20
2019-04-04T22:38:45.937Z,14.20
2019-04-04T22:41:13.851Z,14.20
2019-04-04T22:43:41.682Z,14.20
2019-04-04T22:46:09.566Z,14.20
2019-04-04T22:48:37.489Z,14.20
2019-04-04T22:51:05.290Z,14.20
2019-04-04T22:53:33.183Z,14.10
2019-04-04T22:56:00.964Z,14.10
2019-04-04T22:58:29.133Z,14.10
2019-04-04T23:00:57.083Z,14.00
2019-04-04T23:03:25.513Z,14.00
2019-04-04T23:05:53.541Z,14.00
2019-04-04T23:08:21.407Z,13.90
2019-04-04T23:10:49.375Z,13.90
2019-04-04T23:13:17.240Z,13.80
2019-04-04T23:15:45.371Z,13.80
2019-04-04T23:18:13.177Z,13.70
2019-04-04T23:20:41.040Z,13.70
2019-04-04T23:23:08.995Z,13.70
2019-04-04T23:25:36.946Z,13.70
2019-04-04T23:28:04.747Z,13.60
2019-04-04T23:30:32.510Z,13.60
2019-04-04T23:33:00.386Z,13.60
2019-04-04T23:35:28.222Z,13.50
2019-04-04T23:37:56.123Z,13.50
2019-04-04T23:40:23.957Z,13.50
2019-04-04T23:42:51.760Z,13.40
2019-04-04T23:45:19.891Z,13.40
2019-04-04T23:47:47.777Z,13.30
2019-04-04T23:50:15.645Z,13.30
2019-04-04T23:52:43.531Z,13.20
2019-04-04T23:55:11.543Z,13.20
2019-04-04T23:57:39.415Z,13.20
